createdAt,value
2023-05-02T00:02:22.385Z,100960.19
2023-05-02T00:04:50.937Z,100960.78
2023-05-02T00:07:20.691Z,100966.34
2023-05-02T00:09:49.055Z,100976.31
2023-05-02T00:12:17.403Z,100977.19
2023-05-02T00:14:47.048Z,100984.78
2023-05-02T00:17:18.697Z,100981.22
2023-05-02T00:19:47.381Z,100984.56
2023-05-02T00:22:15.984Z,100992.25
2023-05-02T00:24:44.808Z,100986.78
2023-05-02T00:27:14.215Z,100987.72
2023-05-02T00:29:43.212Z,100984.28
2023-05-02T00:32:17.475Z,100988.09
2023-05-02T00:34:46.945Z,100996.56
2023-05-02T00:37:19.611Z,100991.88
2023-05-02T00:39:53.805Z,100997.31
2023-05-02T00:42:22.705Z,100995.38
2023-05-02T00:44:51.047Z,100997.97
2023-05-02T00:47:20.953Z,100995.00
2023-05-02T00:49:50.752Z,100994.91
2023-05-02T00:52:19.653Z,100993.84
2023-05-02T00:54:48.249Z,100985.41
2023-05-02T00:57:16.541Z,100985.97
2023-05-02T00:59:48.657Z,100982.97
2023-05-02T01:02:24.148Z,100994.00
2023-05-02T01:05:01.135Z,101000.00
2023-05-02T01:07:41.536Z,100987.88
2023-05-02T01:10:15.262Z,100996.63
2023-05-02T01:12:44.621Z,101007.66
2023-05-02T01:15:15.481Z,101006.81
2023-05-02T01:18:07.989Z,101014.31
2023-05-02T01:20:39.156Z,101013.06
2023-05-02T01:23:11.608Z,101018.22
2023-05-02T01:26:10.352Z,101022.25
2023-05-02T01:28:49.331Z,101025.31
2023-05-02T01:31:20.221Z,101016.53
2023-05-02T01:33:50.552Z,101025.31
2023-05-02T01:36:20.654Z,101023.38
2023-05-02T01:38:51.684Z,101028.34
2023-05-02T01:41:23.734Z,101034.38
2023-05-02T01:43:57.210Z,101032.97
2023-05-02T01:46:30.223Z,101036.03
2023-05-02T01:49:04.206Z,101036.59
2023-05-02T01:51:34.800Z,101038.81
2023-05-02T01:54:05.653Z,101041.53
2023-05-02T01:56:36.908Z,101049.16
2023-05-02T01:59:09.069Z,101059.59
2023-05-02T02:01:39.894Z,101064.47
2023-05-02T02:04:10.816Z,101060.84
2023-05-02T02:06:40.283Z,101063.31
2023-05-02T02:09:08.775Z,101067.34
2023-05-02T02:11:38.811Z,101070.13
2023-05-02T02:14:13.422Z,101068.44
2023-05-02T02:16:43.308Z,101075.31
2023-05-02T02:19:15.282Z,101071.72
2023-05-02T02:21:44.709Z,101081.56
2023-05-02T02:24:14.436Z,101080.22
2023-05-02T02:26:42.763Z,101078.56
2023-05-02T02:29:12.454Z,101080.28
2023-05-02T02:31:40.951Z,101076.50
2023-05-02T02:34:09.470Z,101076.78
2023-05-02T02:36:40.917Z,101087.94
2023-05-02T02:39:18.069Z,101083.50
2023-05-02T02:41:51.103Z,101093.09
2023-05-02T02:44:28.538Z,101097.19
2023-05-02T02:47:02.641Z,101088.22
2023-05-02T02:49:35.195Z,101091.72
2023-05-02T02:52:06.618Z,101085.19
2023-05-02T02:54:39.854Z,101094.78
2023-05-02T02:57:13.106Z,101093.97
2023-05-02T02:59:46.628Z,101102.66
2023-05-02T03:02:18.516Z,101094.00
2023-05-02T03:04:47.997Z,101094.25
2023-05-02T03:07:16.303Z,101095.31
2023-05-02T03:09:45.644Z,101100.03
2023-05-02T03:12:14.254Z,101110.75
2023-05-02T03:14:43.961Z,101102.78
2023-05-02T03:17:12.390Z,101106.59
2023-05-02T03:19:40.972Z,101100.22
2023-05-02T03:22:09.348Z,101105.41
2023-05-02T03:24:37.828Z,101112.56
2023-05-02T03:27:06.273Z,101104.31
2023-05-02T03:29:34.857Z,101101.06
2023-05-02T03:32:05.586Z,101119.16
2023-05-02T03:34:34.109Z,101111.22
2023-05-02T03:37:02.501Z,101113.44
2023-05-02T03:39:30.915Z,101114.00
2023-05-02T03:41:59.942Z,101114.81
2023-05-02T03:44:28.391Z,101124.16
2023-05-02T03:46:56.738Z,101123.06
2023-05-02T03:49:26.972Z,101135.06
2023-05-02T03:51:55.289Z,101131.47
2023-05-02T03:54:24.131Z,101134.50
2023-05-02T03:56:52.516Z,101132.34
2023-05-02T03:59:20.883Z,101143.81
2023-05-02T04:01:50.323Z,101146.84
2023-05-02T04:04:19.412Z,101148.19
2023-05-02T04:06:49.329Z,101144.31
2023-05-02T04:09:19.109Z,101148.97
2023-05-02T04:11:47.765Z,101152.00
2023-05-02T04:14:16.714Z,101166.19
2023-05-02T04:16:48.828Z,101157.22
2023-05-02T04:19:18.611Z,101160.47
2023-05-02T04:21:47.288Z,101156.94
2023-05-02T04:24:22.701Z,101163.81
2023-05-02T04:26:52.595Z,101163.28
2023-05-02T04:29:21.701Z,101167.72
2023-05-02T04:31:52.044Z,101163.53
2023-05-02T04:34:21.705Z,101180.78
2023-05-02T04:36:50.051Z,101175.66
2023-05-02T04:39:19.745Z,101177.34
2023-05-02T04:41:48.091Z,101184.72
2023-05-02T04:44:16.691Z,101182.28
2023-05-02T04:46:46.201Z,101183.41
2023-05-02T04:49:14.675Z,101192.41
2023-05-02T04:51:43.063Z,101196.84
2023-05-02T04:54:12.027Z,101204.78
2023-05-02T04:56:42.173Z,101208.63
2023-05-02T04:59:10.748Z,101221.75
2023-05-02T05:01:39.429Z,101224.50
2023-05-02T05:04:07.921Z,101231.88
2023-05-02T05:06:36.555Z,101243.06
2023-05-02T05:09:04.954Z,101245.81
2023-05-02T05:11:33.477Z,101239.50
2023-05-02T05:14:04.114Z,101247.44
2023-05-02T05:16:32.501Z,101249.84
2023-05-02T05:19:00.781Z,101246.31
2023-05-02T05:21:29.110Z,101264.88
2023-05-02T05:24:00.507Z,101262.19
2023-05-02T05:26:29.655Z,101272.03
2023-05-02T05:28:58.175Z,101272.03
2023-05-02T05:31:28.035Z,101271.75
2023-05-02T05:34:00.478Z,101273.13
2023-05-02T05:36:28.899Z,101277.50
2023-05-02T05:38:57.410Z,101285.72
2023-05-02T05:41:26.167Z,101291.19
2023-05-02T05:43:54.666Z,101287.91
2023-05-02T05:46:23.212Z,101293.91
2023-05-02T05:48:53.435Z,101291.38
2023-05-02T05:51:21.993Z,101299.03
2023-05-02T05:53:50.452Z,101299.31
2023-05-02T05:56:19.054Z,101299.31
2023-05-02T05:58:47.392Z,101309.69
2023-05-02T06:01:15.745Z,101313.53
2023-05-02T06:03:44.214Z,101315.09
2023-05-02T06:06:14.347Z,101319.41
2023-05-02T06:08:42.896Z,101317.66
2023-05-02T06:11:11.805Z,101320.34
2023-05-02T06:13:40.136Z,101325.66
2023-05-02T06:16:08.689Z,101324.91
2023-05-02T06:18:36.942Z,101328.06
2023-05-02T06:21:05.908Z,101326.53
2023-05-02T06:23:35.608Z,101332.69
2023-05-02T06:26:04.776Z,101334.88
2023-05-02T06:28:33.215Z,101331.63
2023-05-02T06:31:02.328Z,101340.63
2023-05-02T06:33:30.794Z,101339.19
2023-05-02T06:36:01.311Z,101340.41
2023-05-02T06:38:30.373Z,101345.25
2023-05-02T06:41:00.003Z,101344.06
2023-05-02T06:43:28.319Z,101358.13
2023-05-02T06:45:57.595Z,101363.34
2023-05-02T06:48:25.896Z,101362.66
2023-05-02T06:50:54.588Z,101368.78
2023-05-02T06:53:23.181Z,101377.88
2023-05-02T06:55:51.531Z,101380.66
2023-05-02T06:58:21.198Z,101385.06
2023-05-02T07:00:50.453Z,101389.38
2023-05-02T07:03:25.541Z,101388.25
2023-05-02T07:05:53.901Z,101393.94
2023-05-02T07:08:26.836Z,101402.88
2023-05-02T07:10:55.084Z,101412.28
2023-05-02T07:13:25.115Z,101421.66
2023-05-02T07:15:53.980Z,101433.81
2023-05-02T07:18:22.483Z,101444.81
2023-05-02T07:20:50.918Z,101447.78
2023-05-02T07:23:34.456Z,101450.28
2023-05-02T07:26:06.123Z,101450.25
2023-05-02T07:28:36.148Z,101449.41
2023-05-02T07:31:05.877Z,101462.31
2023-05-02T07:33:34.609Z,101466.13
2023-05-02T07:36:03.431Z,101472.16
2023-05-02T07:38:31.858Z,101474.59
2023-05-02T07:41:00.406Z,101488.56
2023-05-02T07:43:29.369Z,101488.81
2023-05-02T07:46:00.139Z,101488.53
2023-05-02T07:48:28.556Z,101495.34
2023-05-02T07:50:57.002Z,101505.47
2023-05-02T07:53:25.476Z,101505.47
2023-05-02T07:55:53.716Z,101518.88
2023-05-02T07:58:22.098Z,101509.84
2023-05-02T08:00:50.461Z,101513.13
2023-05-02T08:03:20.398Z,101516.97
2023-05-02T08:05:48.751Z,101524.91
2023-05-02T08:08:16.970Z,101532.56
2023-05-02T08:10:45.444Z,101520.28
2023-05-02T08:13:13.872Z,101531.19
2023-05-02T08:15:42.078Z,101533.66
2023-05-02T08:18:10.657Z,101535.56
2023-05-02T08:20:40.729Z,101546.19
2023-05-02T08:23:09.054Z,101547.53
2023-05-02T08:25:38.006Z,101542.53
2023-05-02T08:28:06.315Z,101556.22
2023-05-02T08:30:34.830Z,101550.72
2023-05-02T08:33:03.254Z,101560.56
2023-05-02T08:35:31.729Z,101558.97
2023-05-02T08:38:01.473Z,101566.72
2023-05-02T08:40:42.399Z,101570.59
2023-05-02T08:43:12.258Z,101578.25
2023-05-02T08:45:41.914Z,101582.00
2023-05-02T08:48:11.784Z,101591.00
2023-05-02T08:50:41.707Z,101592.03
2023-05-02T08:53:11.923Z,101593.38
2023-05-02T08:55:41.381Z,101600.47
2023-05-02T08:58:10.819Z,101605.69
2023-05-02T09:00:39.758Z,101606.81
2023-05-02T09:03:25.563Z,101615.06
2023-05-02T09:05:57.012Z,101617.53
2023-05-02T09:08:26.870Z,101618.69
2023-05-02T09:10:55.142Z,101617.94
2023-05-02T09:13:30.425Z,101615.97
2023-05-02T09:16:00.699Z,101619.09
2023-05-02T09:18:33.011Z,101616.75
2023-05-02T09:21:02.055Z,101616.25
2023-05-02T09:23:35.699Z,101622.66
2023-05-02T09:26:11.892Z,101629.25
2023-05-02T09:28:41.882Z,101618.81
2023-05-02T09:31:11.127Z,101617.53
2023-05-02T09:33:40.172Z,101618.59
2023-05-02T09:36:09.130Z,101627.97
2023-05-02T09:38:38.972Z,101631.28
2023-05-02T09:41:07.791Z,101634.38
2023-05-02T09:43:36.218Z,101642.13
2023-05-02T09:46:05.289Z,101642.66
2023-05-02T09:48:35.131Z,101638.47
2023-05-02T09:51:07.925Z,101640.50
2023-05-02T09:53:44.903Z,101646.44
2023-05-02T09:56:13.880Z,101644.75
2023-05-02T09:58:42.897Z,101649.50
2023-05-02T10:01:15.997Z,101652.28
2023-05-02T10:03:49.064Z,101656.69
2023-05-02T10:06:18.146Z,101655.59
2023-05-02T10:08:49.525Z,101661.53
2023-05-02T10:11:25.304Z,101669.44
2023-05-02T10:13:54.961Z,101668.63
2023-05-02T10:16:30.068Z,101675.88
2023-05-02T10:19:04.150Z,101674.91
2023-05-02T10:21:33.534Z,101667.16
2023-05-02T10:24:04.419Z,101677.00
2023-05-02T10:26:35.543Z,101670.34
2023-05-02T10:29:04.489Z,101675.16
2023-05-02T10:31:35.184Z,101663.28
2023-05-02T10:34:05.747Z,101660.75
2023-05-02T10:36:34.569Z,101660.44
2023-05-02T10:39:05.621Z,101660.94
2023-05-02T10:41:35.670Z,101659.78
2023-05-02T10:44:08.844Z,101659.00
2023-05-02T10:46:41.043Z,101662.44
2023-05-02T10:49:11.469Z,101664.00
2023-05-02T10:51:41.603Z,101667.81
2023-05-02T10:54:27.144Z,101667.03
2023-05-02T10:57:07.145Z,101670.44
2023-05-02T10:59:36.889Z,101659.44
2023-05-02T11:02:07.299Z,101657.22
2023-05-02T11:04:50.980Z,101653.59
2023-05-02T11:07:20.123Z,101655.69
2023-05-02T11:09:49.935Z,101656.84
2023-05-02T11:12:37.424Z,101662.72
2023-05-02T11:15:06.817Z,101664.94
2023-05-02T11:17:58.690Z,101668.66
2023-05-02T11:20:27.276Z,101657.25
2023-05-02T11:22:56.720Z,101669.56
2023-05-02T11:25:34.078Z,101669.31
2023-05-02T11:28:02.710Z,101672.75
2023-05-02T11:30:38.196Z,101681.97
2023-05-02T11:33:31.221Z,101687.63
2023-05-02T11:35:59.803Z,101694.34
2023-05-02T11:38:36.125Z,101688.03
2023-05-02T11:41:07.273Z,101690.38
2023-05-02T11:43:36.092Z,101684.03
2023-05-02T11:46:05.993Z,101694.97
2023-05-02T11:48:34.704Z,101681.66
2023-05-02T11:51:05.682Z,101681.25
2023-05-02T11:53:35.175Z,101684.06
2023-05-02T11:56:05.657Z,101690.63
2023-05-02T11:58:35.458Z,101692.50
2023-05-02T12:01:14.731Z,101689.22
2023-05-02T12:03:43.655Z,101699.00
2023-05-02T12:06:14.135Z,101703.22
2023-05-02T12:08:43.932Z,101708.53
2023-05-02T12:11:14.629Z,101701.41
2023-05-02T12:13:53.666Z,101713.41
2023-05-02T12:16:22.752Z,101707.78
2023-05-02T12:18:52.098Z,101707.69
2023-05-02T12:21:21.158Z,101705.69
2023-05-02T12:23:49.986Z,101709.06
2023-05-02T12:26:19.386Z,101712.31
2023-05-02T12:28:51.506Z,101706.47
2023-05-02T12:31:21.931Z,101712.06
2023-05-02T12:33:52.544Z,101718.94
2023-05-02T12:36:21.754Z,101716.41
2023-05-02T12:38:53.425Z,101723.97
2023-05-02T12:41:33.067Z,101734.69
2023-05-02T12:44:02.149Z,101725.47
2023-05-02T12:46:32.777Z,101722.88
2023-05-02T12:49:18.062Z,101726.06
2023-05-02T12:51:54.241Z,101724.00
2023-05-02T12:54:22.788Z,101726.00
2023-05-02T12:56:52.223Z,101725.59
2023-05-02T12:59:27.750Z,101728.47
2023-05-02T13:01:57.978Z,101730.72
2023-05-02T13:04:34.723Z,101726.91
2023-05-02T13:07:03.268Z,101734.72
2023-05-02T13:09:31.996Z,101735.31
2023-05-02T13:12:00.894Z,101728.78
2023-05-02T13:14:29.261Z,101738.78
2023-05-02T13:16:59.998Z,101743.44
2023-05-02T13:19:31.246Z,101736.13
2023-05-02T13:22:00.075Z,101736.84
2023-05-02T13:24:28.485Z,101731.72
2023-05-02T13:26:56.935Z,101728.44
2023-05-02T13:29:25.314Z,101737.81
2023-05-02T13:31:54.021Z,101725.06
2023-05-02T13:34:23.785Z,101722.94
2023-05-02T13:36:52.342Z,101734.66
2023-05-02T13:39:21.131Z,101725.69
2023-05-02T13:41:49.607Z,101733.22
2023-05-02T13:44:18.864Z,101733.38
2023-05-02T13:46:47.847Z,101725.97
2023-05-02T13:49:16.351Z,101730.13
2023-05-02T13:51:46.114Z,101731.47
2023-05-02T13:54:15.216Z,101725.75
2023-05-02T13:56:43.835Z,101726.59
2023-05-02T13:59:12.337Z,101727.25
2023-05-02T14:01:41.267Z,101728.06
2023-05-02T14:04:10.175Z,101735.13
2023-05-02T14:06:39.284Z,101737.25
2023-05-02T14:09:10.049Z,101724.41
2023-05-02T14:11:38.616Z,101733.97
2023-05-02T14:14:07.431Z,101743.53
2023-05-02T14:16:36.279Z,101749.16
2023-05-02T14:19:05.372Z,101741.00
2023-05-02T14:21:34.442Z,101734.75
2023-05-02T14:24:02.782Z,101723.28
2023-05-02T14:26:33.682Z,101727.84
2023-05-02T14:29:09.728Z,101728.94
2023-05-02T14:31:39.784Z,101730.44
2023-05-02T14:34:09.082Z,101724.25
2023-05-02T14:36:37.552Z,101731.50
2023-05-02T14:39:06.195Z,101730.41
2023-05-02T14:41:36.463Z,101721.84
2023-05-02T14:44:05.069Z,101725.50
2023-05-02T14:46:34.448Z,101724.81
2023-05-02T14:49:04.357Z,101730.47
2023-05-02T14:51:33.883Z,101734.41
2023-05-02T14:54:02.982Z,101744.38
2023-05-02T14:56:32.453Z,101733.59
2023-05-02T14:59:03.522Z,101734.88
2023-05-02T15:01:38.293Z,101726.88
2023-05-02T15:04:11.042Z,101734.88
2023-05-02T15:06:41.282Z,101727.84
2023-05-02T15:09:12.246Z,101734.13
2023-05-02T15:11:41.225Z,101732.44
2023-05-02T15:14:11.763Z,101735.13
2023-05-02T15:16:42.164Z,101747.44
2023-05-02T15:19:31.496Z,101748.22
2023-05-02T15:22:06.736Z,101744.44
2023-05-02T15:24:38.630Z,101742.69
2023-05-02T15:27:09.440Z,101747.91
2023-05-02T15:29:39.594Z,101749.25
2023-05-02T15:32:08.628Z,101732.63
2023-05-02T15:34:37.161Z,101742.91
2023-05-02T15:37:06.473Z,101743.53
2023-05-02T15:39:34.876Z,101744.13
2023-05-02T15:42:04.673Z,101743.56
2023-05-02T15:44:35.073Z,101745.75
2023-05-02T15:47:05.041Z,101745.09
2023-05-02T15:49:33.461Z,101746.56
2023-05-02T15:52:03.297Z,101754.66
2023-05-02T15:54:32.780Z,101757.31
2023-05-02T15:57:02.697Z,101759.69
2023-05-02T15:59:31.222Z,101764.44
2023-05-02T16:02:00.279Z,101768.53
2023-05-02T16:04:32.212Z,101779.38
2023-05-02T16:07:00.736Z,101783.50
2023-05-02T16:09:31.113Z,101775.47
2023-05-02T16:11:59.606Z,101772.53
2023-05-02T16:14:29.094Z,101765.59
2023-05-02T16:16:59.837Z,101780.25
2023-05-02T16:19:28.295Z,101783.84
2023-05-02T16:21:58.088Z,101778.34
2023-05-02T16:24:26.606Z,101781.50
2023-05-02T16:26:55.397Z,101780.03
2023-05-02T16:29:23.806Z,101779.72
2023-05-02T16:31:52.324Z,101778.66
2023-05-02T16:34:21.176Z,101790.13
2023-05-02T16:36:49.670Z,101787.31
2023-05-02T16:39:19.511Z,101791.13
2023-05-02T16:42:04.579Z,101788.91
2023-05-02T16:44:33.712Z,101791.50
2023-05-02T16:47:02.553Z,101784.19
2023-05-02T16:49:32.114Z,101792.84
2023-05-02T16:52:00.963Z,101787.09
2023-05-02T16:54:32.428Z,101798.72
2023-05-02T16:57:02.713Z,101793.84
2023-05-02T16:59:34.286Z,101789.78
2023-05-02T17:02:04.408Z,101788.88
2023-05-02T17:04:37.529Z,101799.66
2023-05-02T17:07:09.125Z,101799.19
2023-05-02T17:09:40.888Z,101793.97
2023-05-02T17:12:10.767Z,101800.03
2023-05-02T17:14:42.547Z,101786.41
2023-05-02T17:17:11.408Z,101794.81
2023-05-02T17:19:40.177Z,101785.50
2023-05-02T17:22:09.060Z,101779.22
2023-05-02T17:24:38.097Z,101785.28
2023-05-02T17:27:08.267Z,101790.59
2023-05-02T17:29:38.938Z,101793.44
2023-05-02T17:32:10.135Z,101790.75
2023-05-02T17:34:42.915Z,101796.53
2023-05-02T17:37:12.791Z,101803.38
2023-05-02T17:39:42.105Z,101801.22
2023-05-02T17:42:13.161Z,101802.03
2023-05-02T17:44:43.875Z,101803.44
2023-05-02T17:47:13.280Z,101811.69
2023-05-02T17:49:42.450Z,101817.25
2023-05-02T17:52:11.611Z,101815.91
2023-05-02T17:54:40.478Z,101808.78
2023-05-02T17:57:10.108Z,101815.66
2023-05-02T17:59:41.505Z,101812.34
2023-05-02T18:02:26.663Z,101823.59
2023-05-02T18:04:56.495Z,101823.63
2023-05-02T18:07:25.430Z,101826.72
2023-05-02T18:09:54.144Z,101828.69
2023-05-02T18:12:23.042Z,101831.19
2023-05-02T18:14:53.136Z,101831.16
2023-05-02T18:17:22.228Z,101835.03
2023-05-02T18:19:50.774Z,101830.94
2023-05-02T18:22:21.618Z,101833.97
2023-05-02T18:24:50.573Z,101826.25
2023-05-02T18:27:19.057Z,101838.81
2023-05-02T18:29:47.672Z,101830.56
2023-05-02T18:32:17.657Z,101829.16
2023-05-02T18:34:46.283Z,101832.72
2023-05-02T18:37:14.964Z,101835.41
2023-05-02T18:39:43.520Z,101830.41
2023-05-02T18:42:13.132Z,101844.25
2023-05-02T18:44:42.031Z,101845.34
2023-05-02T18:47:10.918Z,101843.84
2023-05-02T18:49:41.686Z,101842.09
2023-05-02T18:52:13.427Z,101854.19
2023-05-02T18:54:42.122Z,101852.44
2023-05-02T18:57:11.094Z,101849.13
2023-05-02T18:59:39.997Z,101857.50
2023-05-02T19:02:08.400Z,101846.22
2023-05-02T19:04:37.408Z,101852.69
2023-05-02T19:07:07.336Z,101867.91
2023-05-02T19:09:35.877Z,101862.91
2023-05-02T19:12:04.625Z,101878.16
2023-05-02T19:14:33.408Z,101867.84
2023-05-02T19:17:01.864Z,101882.28
2023-05-02T19:19:31.159Z,101878.47
2023-05-02T19:21:59.756Z,101876.53
2023-05-02T19:24:30.118Z,101880.13
2023-05-02T19:27:00.687Z,101877.97
2023-05-02T19:29:29.504Z,101885.97
2023-05-02T19:31:58.165Z,101891.47
2023-05-02T19:34:27.376Z,101892.56
2023-05-02T19:36:56.551Z,101895.69
2023-05-02T19:39:42.547Z,101898.56
2023-05-02T19:42:11.373Z,101902.53
2023-05-02T19:44:42.228Z,101912.28
2023-05-02T19:47:11.230Z,101912.16
2023-05-02T19:49:41.127Z,101915.63
2023-05-02T19:52:10.486Z,101905.16
2023-05-02T19:54:39.192Z,101906.78
2023-05-02T19:57:18.757Z,101917.75
2023-05-02T19:59:51.968Z,101929.00
2023-05-02T20:02:28.168Z,101921.00
2023-05-02T20:05:00.406Z,101915.69
2023-05-02T20:07:29.050Z,101918.16
2023-05-02T20:09:57.839Z,101918.25
2023-05-02T20:12:28.709Z,101922.06
2023-05-02T20:14:59.115Z,101930.22
2023-05-02T20:17:28.058Z,101936.19
2023-05-02T20:20:01.339Z,101937.69
2023-05-02T20:22:30.841Z,101935.66
2023-05-02T20:25:05.734Z,101938.78
2023-05-02T20:27:41.079Z,101946.09
2023-05-02T20:30:14.519Z,101947.19
2023-05-02T20:32:53.590Z,101938.91
2023-05-02T20:35:24.801Z,101937.88
2023-05-02T20:37:57.619Z,101936.53
2023-05-02T20:40:27.977Z,101940.47
2023-05-02T20:43:02.475Z,101936.31
2023-05-02T20:45:34.338Z,101934.47
2023-05-02T20:48:05.414Z,101945.25
2023-05-02T20:50:35.193Z,101935.22
2023-05-02T20:53:06.045Z,101949.75
2023-05-02T20:55:37.459Z,101951.53
2023-05-02T20:58:09.685Z,101945.88
2023-05-02T21:00:38.855Z,101950.03
2023-05-02T21:03:07.506Z,101955.00
2023-05-02T21:05:35.988Z,101952.97
2023-05-02T21:08:11.158Z,101962.06
2023-05-02T21:10:42.586Z,101961.47
2023-05-02T21:13:14.482Z,101950.16
2023-05-02T21:15:46.376Z,101957.72
2023-05-02T21:18:21.754Z,101955.00
2023-05-02T21:20:51.678Z,101962.53
2023-05-02T21:23:20.747Z,101955.28
2023-05-02T21:25:49.172Z,101952.94
2023-05-02T21:28:18.816Z,101956.44
2023-05-02T21:30:47.184Z,101958.66
2023-05-02T21:33:17.667Z,101957.47
2023-05-02T21:35:46.496Z,101958.31
2023-05-02T21:38:17.822Z,101958.78
2023-05-02T21:40:46.237Z,101966.94
2023-05-02T21:43:14.571Z,101965.59
2023-05-02T21:45:47.509Z,101974.09
2023-05-02T21:48:17.714Z,101972.22
2023-05-02T21:50:46.378Z,101969.38
2023-05-02T21:53:14.801Z,101963.81
2023-05-02T21:55:43.280Z,101973.91
2023-05-02T21:58:12.347Z,101972.50
2023-05-02T22:00:41.340Z,101969.91
2023-05-02T22:03:11.925Z,101969.28
2023-05-02T22:05:41.277Z,101965.16
2023-05-02T22:08:11.114Z,101963.94
2023-05-02T22:10:40.386Z,101971.94
2023-05-02T22:13:09.861Z,101970.56
2023-05-02T22:15:38.680Z,101974.13
2023-05-02T22:18:08.145Z,101979.78
2023-05-02T22:20:37.968Z,101969.91
2023-05-02T22:23:06.488Z,101967.50
2023-05-02T22:25:35.848Z,101981.88
2023-05-02T22:28:16.559Z,101980.75
2023-05-02T22:30:45.629Z,101982.03
2023-05-02T22:33:14.239Z,101983.78
2023-05-02T22:35:45.264Z,101984.72
2023-05-02T22:38:15.493Z,101992.09
2023-05-02T22:40:44.363Z,101985.16
2023-05-02T22:43:12.869Z,101991.09
2023-05-02T22:45:41.140Z,101984.31
2023-05-02T22:48:09.498Z,101988.31
2023-05-02T22:50:38.747Z,101990.44
2023-05-02T22:53:09.454Z,101995.09
2023-05-02T22:55:38.129Z,101993.06
2023-05-02T22:58:06.473Z,101987.25
2023-05-02T23:00:34.676Z,101995.97
2023-05-02T23:03:03.493Z,101998.09
2023-05-02T23:05:31.859Z,101993.13
2023-05-02T23:08:00.269Z,101994.00
2023-05-02T23:10:29.981Z,101991.13
2023-05-02T23:12:58.227Z,101989.50
2023-05-02T23:15:26.458Z,101982.66
2023-05-02T23:17:54.724Z,101985.34
2023-05-02T23:20:23.396Z,101983.16
2023-05-02T23:22:51.804Z,101990.09
2023-05-02T23:25:20.913Z,101984.00
2023-05-02T23:27:51.588Z,101979.41
2023-05-02T23:30:20.006Z,101973.38
2023-05-02T23:32:48.403Z,101980.47
2023-05-02T23:35:34.711Z,101984.00
2023-05-02T23:38:05.527Z,101984.81
2023-05-02T23:40:34.149Z,101975.34
2023-05-02T23:43:03.821Z,101970.38
2023-05-02T23:45:32.077Z,101980.78
2023-05-02T23:48:00.341Z,101978.94
2023-05-02T23:50:28.655Z,101971.72
2023-05-02T23:52:56.959Z,101960.03
2023-05-02T23:55:25.303Z,101961.31
2023-05-02T23:57:53.463Z,101967.66
